Time;durP1;ratioP1;P1;durP2;ratioP2;P2;SDS_P1;SDS_P2;PMS_P1;PMS_P2;Temp;Humidity;BMP_temperature;BMP_pressure;BME280_temperature;BME280_humidity;BME280_pressure;Samples;Min_cycle;Max_cycle;Signal;HPM_P1;HPM_P2
2023/05/05 00:00:32;;;;;;;11.02;8.35;;;;;;;14.51;100.00;100844.44;5110150;28;20035;-61
2023/05/05 00:02:57;;;;;;;10.23;7.30;;;;;;;14.39;100.00;100827.56;5109382;28;20513;-62
2023/05/05 00:05:24;;;;;;;8.93;7.32;;;;;;;14.39;97.23;100832.97;5109242;28;20582;-62
2023/05/05 00:07:49;;;;;;;7.97;6.30;;;;;;;14.42;92.83;100838.06;5110518;28;20483;-62
2023/05/05 00:10:15;;;;;;;8.30;6.32;;;;;;;14.36;94.64;100830.56;5110398;28;20027;-63
2023/05/05 00:12:41;;;;;;;8.25;5.93;;;;;;;14.27;95.04;100817.06;5110621;28;20051;-61
2023/05/05 00:15:06;;;;;;;7.88;5.50;;;;;;;14.36;89.72;100827.84;5109917;28;20441;-61
2023/05/05 00:17:32;;;;;;;8.70;5.57;;;;;;;14.30;90.87;100833.81;5110412;28;20046;-61
2023/05/05 00:19:58;;;;;;;6.72;5.05;;;;;;;14.29;88.91;100836.66;5110259;28;20039;-61
2023/05/05 00:22:24;;;;;;;9.00;5.60;;;;;;;14.26;92.00;100829.72;5110394;28;20077;-62
2023/05/05 00:24:50;;;;;;;7.78;5.95;;;;;;;14.15;95.58;100812.81;5110012;28;20408;-62
2023/05/05 00:27:15;;;;;;;8.25;5.97;;;;;;;14.14;96.93;100836.25;5110206;28;20061;-62
2023/05/05 00:29:40;;;;;;;8.05;5.95;;;;;;;14.07;97.81;100829.72;5108666;28;20044;-61
2023/05/05 00:32:06;;;;;;;6.70;5.95;;;;;;;13.95;98.88;100820.09;5110234;28;20024;-62
2023/05/05 00:34:31;;;;;;;8.63;5.57;;;;;;;13.84;96.43;100808.59;5108867;28;20027;-62
2023/05/05 00:36:57;;;;;;;8.18;5.78;;;;;;;13.83;87.75;100821.22;5109791;28;20019;-62
2023/05/05 00:39:23;;;;;;;6.57;5.40;;;;;;;13.86;87.88;100829.03;5109639;28;20024;-61
2023/05/05 00:41:48;;;;;;;8.70;5.47;;;;;;;13.81;90.04;100822.38;5109529;28;20046;-61
2023/05/05 00:44:14;;;;;;;6.78;5.63;;;;;;;13.84;90.74;100832.88;5110085;28;20407;-61
2023/05/05 00:46:41;;;;;;;6.85;5.15;;;;;;;13.81;91.53;100831.31;5109719;28;20067;-61
2023/05/05 00:49:07;;;;;;;8.20;5.65;;;;;;;13.58;90.82;100792.16;5109492;28;20188;-61
2023/05/05 00:51:32;;;;;;;10.00;5.32;;;;;;;13.74;90.75;100824.78;5109896;28;20072;-62
2023/05/05 00:53:58;;;;;;;9.80;5.07;;;;;;;13.74;90.76;100822.09;5107943;28;20114;-61
2023/05/05 00:56:26;;;;;;;6.22;4.95;;;;;;;13.70;91.11;100824.22;5108580;28;20046;-61
2023/05/05 00:58:52;;;;;;;7.60;5.20;;;;;;;13.64;90.88;100808.59;5109143;28;20391;-61
2023/05/05 01:01:17;;;;;;;7.50;5.50;;;;;;;13.62;92.57;100823.22;5109682;28;20102;-61
2023/05/05 01:03:43;;;;;;;8.43;5.60;;;;;;;13.54;94.26;100809.59;5109641;28;20028;-62
2023/05/05 01:06:18;;;;;;;8.05;5.60;;;;;;;13.42;95.33;100797.28;5103447;28;20164;-61
2023/05/05 01:08:56;;;;;;;6.90;6.03;;;;;;;13.48;96.37;100813.72;4745996;28;10001534;-62
2023/05/05 01:11:34;;;;;;;7.05;4.90;;;;;;;13.32;97.56;100796.41;5107851;28;20040;-61
2023/05/05 01:14:16;;;;;;;8.07;5.97;;;;;;;13.36;98.27;100806.78;5108312;28;20807;-61
2023/05/05 01:16:59;;;;;;;6.93;5.75;;;;;;;13.30;99.11;100810.03;5108776;28;20255;-61
2023/05/05 01:19:24;;;;;;;6.60;5.28;;;;;;;13.25;99.14;100808.72;5108539;28;20411;-61
2023/05/05 01:21:58;;;;;;;6.80;5.80;;;;;;;13.15;99.43;100797.06;5108387;28;20035;-61
2023/05/05 01:24:54;;;;;;;6.77;5.30;;;;;;;13.13;99.77;100801.78;5107130;28;20031;-61
2023/05/05 01:27:54;;;;;;;8.07;5.85;;;;;;;13.09;100.00;100800.34;5108369;28;20304;-61
2023/05/05 01:30:44;;;;;;;12.40;6.25;;;;;;;13.01;100.00;100803.75;5106425;28;20023;-61
2023/05/05 01:33:14;;;;;;;6.85;5.30;;;;;;;12.99;99.89;100802.16;5108313;28;20042;-60
2023/05/05 01:35:46;;;;;;;8.82;5.70;;;;;;;12.95;100.00;100806.94;5089776;27;20031;-62
2023/05/05 01:38:18;;;;;;;8.52;5.85;;;;;;;12.92;98.63;100809.91;5087986;28;20032;-62
2023/05/05 01:41:02;;;;;;;14.00;6.18;;;;;;;12.90;99.43;100801.09;5088050;28;20024;-61
2023/05/05 01:43:31;;;;;;;7.05;5.53;;;;;;;12.86;100.00;100810.44;5097011;28;20513;-62
2023/05/05 01:45:59;;;;;;;7.47;5.82;;;;;;;12.78;100.00;100795.97;5107295;28;20511;-62
2023/05/05 01:48:25;;;;;;;9.75;5.78;;;;;;;12.79;100.00;100803.06;5106729;28;20027;-61
2023/05/05 01:50:52;;;;;;;8.77;5.32;;;;;;;12.65;100.00;100790.84;5107911;28;20388;-62
2023/05/05 01:53:20;;;;;;;9.38;6.05;;;;;;;12.57;100.00;100785.28;5088114;28;20064;-62
2023/05/05 01:55:48;;;;;;;6.47;5.28;;;;;;;12.60;100.00;100803.84;5087198;28;20094;-62
2023/05/05 01:58:16;;;;;;;7.97;5.57;;;;;;;12.56;100.00;100813.19;5087240;28;20091;-62
2023/05/05 02:00:43;;;;;;;9.00;5.72;;;;;;;12.53;100.00;100812.59;5090076;28;20101;-62
2023/05/05 02:03:12;;;;;;;8.50;6.10;;;;;;;12.49;100.00;100806.66;5098487;28;20026;-61
2023/05/05 02:05:38;;;;;;;7.35;5.80;;;;;;;12.46;100.00;100803.34;5103253;27;21390;-62
2023/05/05 02:08:05;;;;;;;7.25;5.93;;;;;;;12.42;100.00;100804.63;5109594;27;20367;-62
2023/05/05 02:10:31;;;;;;;9.43;6.38;;;;;;;12.38;100.00;100813.97;5108257;28;20092;-61
2023/05/05 02:13:01;;;;;;;10.43;5.93;;;;;;;12.29;100.00;100806.69;5108297;28;20025;-62
2023/05/05 02:15:28;;;;;;;7.53;5.78;;;;;;;12.25;100.00;100805.25;5105778;28;20036;-61
2023/05/05 02:17:55;;;;;;;11.30;6.60;;;;;;;12.27;100.00;100809.50;5108748;28;20027;-62
2023/05/05 02:20:22;;;;;;;8.40;5.10;;;;;;;12.24;100.00;100806.22;5108800;28;20502;-61
2023/05/05 02:22:48;;;;;;;6.53;5.22;;;;;;;12.19;100.00;100805.78;5108780;28;20548;-62
2023/05/05 02:25:14;;;;;;;7.30;5.65;;;;;;;12.15;100.00;100805.19;5106450;28;20114;-61
2023/05/05 02:27:42;;;;;;;8.32;5.97;;;;;;;12.10;100.00;100802.06;5108550;28;20076;-62
2023/05/05 02:30:10;;;;;;;7.30;5.82;;;;;;;12.09;100.00;100812.94;5108785;28;20039;-62
2023/05/05 02:32:39;;;;;;;7.45;5.70;;;;;;;12.06;100.00;100813.19;5105918;28;20040;-62
2023/05/05 02:35:21;;;;;;;7.20;5.65;;;;;;;12.03;100.00;100811.59;5109789;28;20851;-62
2023/05/05 02:37:52;;;;;;;8.23;5.68;;;;;;;11.91;100.00;100791.19;5090762;28;20074;-62
2023/05/05 02:40:23;;;;;;;10.30;6.13;;;;;;;11.81;100.00;100784.03;5089522;28;20024;-61
2023/05/05 02:42:50;;;;;;;8.52;5.40;;;;;;;11.90;100.00;100796.69;5092457;28;20023;-62
2023/05/05 02:45:18;;;;;;;9.90;5.65;;;;;;;11.80;100.00;100785.03;5100018;28;20075;-61
2023/05/05 02:47:44;;;;;;;6.55;5.40;;;;;;;11.84;100.00;100798.06;5107736;28;20028;-61
2023/05/05 02:50:10;;;;;;;7.72;5.85;;;;;;;11.80;100.00;100799.28;5107792;28;20031;-62
2023/05/05 02:52:36;;;;;;;8.65;6.22;;;;;;;11.70;100.00;100793.00;5109204;28;20050;-62
2023/05/05 02:55:03;;;;;;;6.80;5.70;;;;;;;11.73;100.00;100808.84;5109273;28;20032;-62
2023/05/05 02:57:40;;;;;;;8.27;5.60;;;;;;;11.64;100.00;100795.38;5111634;28;20039;-61
2023/05/05 03:00:15;;;;;;;7.07;6.03;;;;;;;11.65;100.00;100802.44;5112442;28;20119;-61
2023/05/05 03:03:04;;;;;;;8.60;5.95;;;;;;;11.62;100.00;100803.56;5113609;28;20045;-61
2023/05/05 03:05:41;;;;;;;9.07;6.25;;;;;;;11.60;100.00;100799.25;5112668;27;20037;-61
2023/05/05 03:08:12;;;;;;;9.00;5.80;;;;;;;11.57;100.00;100804.91;5113371;28;20475;-61
2023/05/05 03:11:03;;;;;;;6.80;5.20;;;;;;;11.50;100.00;100793.78;5111547;28;20031;-61
2023/05/05 03:13:33;;;;;;;8.13;5.38;;;;;;;11.53;100.00;100809.66;5112837;28;20444;-61
2023/05/05 03:16:05;;;;;;;8.30;5.85;;;;;;;11.50;100.00;100810.78;5113337;28;20019;-60
2023/05/05 03:18:33;;;;;;;7.30;5.85;;;;;;;11.48;100.00;100810.03;5113427;28;20036;-61
2023/05/05 03:21:06;;;;;;;9.70;6.20;;;;;;;11.48;100.00;100818.09;5113469;28;20072;-61
2023/05/05 03:23:32;;;;;;;6.55;5.47;;;;;;;11.43;100.00;100814.97;5112323;28;20108;-62
2023/05/05 03:25:58;;;;;;;9.05;5.93;;;;;;;11.33;100.00;100803.28;5111643;28;20038;-61
2023/05/05 03:28:23;;;;;;;7.78;5.93;;;;;;;11.39;100.00;100818.84;5113270;28;20027;-61
2023/05/05 03:30:49;;;;;;;10.15;7.07;;;;;;;11.39;100.00;100823.41;5102481;28;20092;-61
2023/05/05 03:33:15;;;;;;;10.82;6.38;;;;;;;11.36;100.00;100821.78;5113640;28;20039;-61
2023/05/05 03:35:41;;;;;;;7.88;6.25;;;;;;;11.34;100.00;100822.91;5111926;28;20031;-61
2023/05/05 03:38:06;;;;;;;9.07;6.20;;;;;;;11.33;100.00;100829.28;5113340;28;20030;-61
2023/05/05 03:40:32;;;;;;;8.93;5.95;;;;;;;11.28;100.00;100821.59;5111852;28;20042;-61
2023/05/05 03:42:57;;;;;;;9.43;6.25;;;;;;;11.19;100.00;100803.56;5112918;28;20042;-61
2023/05/05 03:45:23;;;;;;;8.15;5.93;;;;;;;11.19;100.00;100813.47;5113066;28;20475;-61
2023/05/05 03:47:49;;;;;;;9.10;6.32;;;;;;;11.27;100.00;100827.09;5113007;28;20120;-61
2023/05/05 03:50:14;;;;;;;7.03;6.28;;;;;;;11.25;100.00;100819.16;5113096;28;20100;-61
2023/05/05 03:52:40;;;;;;;10.27;6.65;;;;;;;11.28;100.00;100826.09;5113230;28;20028;-61
2023/05/05 03:55:05;;;;;;;8.88;6.03;;;;;;;11.29;100.00;100830.53;5112358;28;20023;-61
2023/05/05 03:57:32;;;;;;;9.20;6.38;;;;;;;11.30;100.00;100833.06;5112941;28;20101;-63
2023/05/05 03:59:58;;;;;;;9.27;6.38;;;;;;;11.31;100.00;100834.78;5113200;28;20055;-62
2023/05/05 04:02:24;;;;;;;9.98;6.38;;;;;;;11.24;100.00;100817.47;5112929;28;20024;-62
2023/05/05 04:04:49;;;;;;;9.40;6.18;;;;;;;11.36;100.00;100832.53;5111437;28;20046;-62
2023/05/05 04:07:14;;;;;;;9.60;6.35;;;;;;;11.39;100.00;100836.81;5111740;28;20038;-61
2023/05/05 04:09:43;;;;;;;8.45;6.35;;;;;;;11.42;100.00;100837.41;5111452;28;20088;-61
2023/05/05 04:12:12;;;;;;;10.55;6.68;;;;;;;11.49;100.00;100852.03;5112445;28;20360;-62
2023/05/05 04:14:37;;;;;;;9.07;6.78;;;;;;;11.48;100.00;100826.16;5110499;28;20038;-62
2023/05/05 04:17:03;;;;;;;9.57;6.53;;;;;;;11.64;100.00;100839.19;5112510;28;20388;-62
2023/05/05 04:19:32;;;;;;;8.73;6.82;;;;;;;11.75;100.00;100843.66;5112293;28;20027;-62
2023/05/05 04:21:58;;;;;;;13.20;7.90;;;;;;;11.78;100.00;100830.84;5112148;28;20034;-61
2023/05/05 04:24:24;;;;;;;10.57;7.70;;;;;;;11.87;100.00;100829.19;5112160;28;20119;-61
2023/05/05 04:26:52;;;;;;;8.82;6.75;;;;;;;11.93;100.00;100823.31;5111831;28;20459;-62
2023/05/05 04:29:18;;;;;;;11.68;7.07;;;;;;;12.16;100.00;100852.59;5104368;28;20391;-62
2023/05/05 04:31:44;;;;;;;9.82;7.18;;;;;;;12.24;100.00;100846.56;5109414;28;20028;-61
2023/05/05 04:34:10;;;;;;;10.82;7.75;;;;;;;12.36;100.00;100851.75;5111106;28;20039;-61
2023/05/05 04:36:35;;;;;;;9.73;7.22;;;;;;;12.51;100.00;100853.09;5110925;28;20425;-67
2023/05/05 04:39:01;;;;;;;9.65;6.65;;;;;;;12.60;100.00;100857.66;5111464;28;20094;-66
2023/05/05 04:41:26;;;;;;;8.40;6.80;;;;;;;12.81;100.00;100860.31;5111724;28;20122;-66
2023/05/05 04:43:54;;;;;;;9.45;6.88;;;;;;;12.94;99.50;100844.78;5110549;28;20030;-66
2023/05/05 04:46:19;;;;;;;10.90;7.45;;;;;;;13.13;98.00;100851.09;5111653;28;20122;-66
2023/05/05 04:48:45;;;;;;;8.02;6.75;;;;;;;13.29;96.96;100854.09;5111555;28;20138;-66
2023/05/05 04:51:11;;;;;;;9.05;6.28;;;;;;;13.49;93.70;100850.47;5111590;28;20031;-67
2023/05/05 04:53:37;;;;;;;11.40;7.20;;;;;;;13.65;91.91;100855.28;5111347;28;20076;-67
2023/05/05 04:56:03;;;;;;;9.10;6.47;;;;;;;13.68;90.95;100828.88;5110838;28;20032;-67
2023/05/05 04:58:29;;;;;;;8.95;6.50;;;;;;;13.98;90.46;100848.59;5109852;28;20035;-67
2023/05/05 05:00:55;;;;;;;10.20;5.88;;;;;;;14.19;87.53;100857.38;5108606;28;20015;-67
2023/05/05 05:03:20;;;;;;;10.38;5.57;;;;;;;14.44;82.70;100859.50;5107155;28;20059;-66
2023/05/05 05:05:46;;;;;;;7.72;6.22;;;;;;;14.51;84.15;100847.13;5109529;28;20569;-66
2023/05/05 05:08:11;;;;;;;9.60;6.00;;;;;;;14.67;83.24;100850.06;5110411;28;20383;-66
2023/05/05 05:10:37;;;;;;;11.38;6.25;;;;;;;14.93;81.84;100857.31;5110514;28;20498;-66
2023/05/05 05:13:02;;;;;;;7.47;5.60;;;;;;;15.18;77.73;100870.13;5110603;28;20024;-66
2023/05/05 05:15:27;;;;;;;8.70;6.13;;;;;;;15.21;74.83;100847.34;5110545;28;20119;-66
2023/05/05 05:17:53;;;;;;;8.65;5.43;;;;;;;15.42;74.67;100859.63;5110821;28;20058;-66
2023/05/05 05:20:18;;;;;;;7.97;5.90;;;;;;;15.62;74.36;100872.03;5109001;28;20027;-62
2023/05/05 05:22:45;;;;;;;9.02;5.10;;;;;;;15.63;72.88;100860.19;5110692;28;20080;-62
2023/05/05 05:25:13;;;;;;;7.47;5.45;;;;;;;15.76;72.27;100855.25;5110775;28;20031;-63
2023/05/05 05:27:38;;;;;;;8.18;5.43;;;;;;;15.91;71.72;100866.38;5109415;28;20035;-61
2023/05/05 05:30:04;;;;;;;7.68;5.00;;;;;;;15.99;70.13;100861.03;5109253;28;20023;-62
2023/05/05 05:32:29;;;;;;;10.50;4.80;;;;;;;16.07;68.65;100868.38;5110617;28;20035;-61
2023/05/05 05:34:55;;;;;;;8.68;5.50;;;;;;;15.99;68.27;100833.97;5109500;27;20039;-63
2023/05/05 05:37:20;;;;;;;8.57;4.78;;;;;;;16.21;67.71;100865.09;5110489;28;20084;-66
2023/05/05 05:39:52;;;;;;;7.97;5.40;;;;;;;16.27;65.96;100865.31;5110469;28;20027;-66
2023/05/05 05:42:17;;;;;;;9.07;4.90;;;;;;;16.32;67.53;100867.56;5110762;28;20097;-67
2023/05/05 05:44:43;;;;;;;7.68;5.55;;;;;;;16.35;67.67;100861.84;5110577;28;20127;-67
2023/05/05 05:47:08;;;;;;;8.80;4.90;;;;;;;16.39;67.88;100857.78;5110315;28;20051;-67
2023/05/05 05:49:34;;;;;;;7.72;4.43;;;;;;;16.43;66.35;100860.06;5110291;28;20039;-67
2023/05/05 05:51:59;;;;;;;7.80;4.40;;;;;;;16.46;64.60;100848.91;5109075;28;20079;-66
2023/05/05 05:54:25;;;;;;;8.32;4.93;;;;;;;16.61;64.27;100863.56;5108821;28;20039;-66
2023/05/05 05:56:50;;;;;;;6.60;5.13;;;;;;;16.67;64.25;100862.09;5108848;28;20073;-66
2023/05/05 05:59:16;;;;;;;9.70;5.35;;;;;;;16.81;64.83;100875.03;5108554;28;20092;-66
2023/05/05 06:01:41;;;;;;;12.05;5.60;;;;;;;16.85;64.81;100863.72;5110108;28;20365;-66
2023/05/05 06:04:07;;;;;;;6.68;5.38;;;;;;;16.97;65.13;100858.84;5109059;28;20023;-66
2023/05/05 06:06:33;;;;;;;6.68;5.05;;;;;;;16.99;63.18;100848.72;5106453;28;20027;-67
2023/05/05 06:08:58;;;;;;;7.57;5.00;;;;;;;17.22;63.71;100872.34;5108903;28;20102;-67
2023/05/05 06:11:24;;;;;;;6.50;4.85;;;;;;;17.34;63.02;100878.31;5108849;28;20035;-67
2023/05/05 06:13:49;;;;;;;8.98;5.18;;;;;;;17.48;61.96;100875.84;5109163;28;20028;-67
2023/05/05 06:16:14;;;;;;;8.20;5.03;;;;;;;17.51;61.81;100872.81;5109600;28;20023;-67
2023/05/05 06:18:40;;;;;;;7.05;4.53;;;;;;;17.63;61.71;100870.63;5109106;28;20051;-66
2023/05/05 06:21:05;;;;;;;6.93;4.55;;;;;;;17.67;61.55;100855.72;5110019;28;20067;-67
2023/05/05 06:23:31;;;;;;;5.88;4.68;;;;;;;17.84;61.67;100871.03;5109251;28;20027;-67
2023/05/05 06:25:56;;;;;;;6.30;4.55;;;;;;;17.96;61.69;100875.94;5110077;28;20027;-67
2023/05/05 06:28:22;;;;;;;9.43;5.22;;;;;;;18.07;60.82;100877.47;5110128;28;20027;-67
2023/05/05 06:30:47;;;;;;;6.68;5.00;;;;;;;18.11;60.63;100865.25;5108313;28;20064;-67
2023/05/05 06:33:13;;;;;;;6.22;4.60;;;;;;;18.21;59.79;100868.66;5113816;27;20031;-66
2023/05/05 06:35:38;;;;;;;6.97;4.47;;;;;;;18.39;60.15;100876.66;5114057;28;20484;-66
2023/05/05 06:38:03;;;;;;;8.40;4.47;;;;;;;18.51;60.33;100870.69;5113948;28;20019;-67
2023/05/05 06:40:29;;;;;;;6.70;4.50;;;;;;;18.65;60.42;100874.56;5113248;28;20039;-67
2023/05/05 06:42:55;;;;;;;7.30;5.13;;;;;;;18.76;59.09;100872.34;5112280;28;20038;-66
2023/05/05 06:45:20;;;;;;;7.50;4.63;;;;;;;18.73;59.13;100845.50;5112597;28;20372;-66
2023/05/05 06:47:46;;;;;;;9.48;4.35;;;;;;;19.02;58.81;100872.94;5113738;28;20038;-67
2023/05/05 06:50:11;;;;;;;4.25;3.58;;;;;;;19.15;58.83;100872.41;5113796;28;20369;-66
2023/05/05 06:52:37;;;;;;;7.25;4.07;;;;;;;19.30;58.49;100874.22;5113764;28;20108;-67
2023/05/05 06:55:03;;;;;;;8.90;4.97;;;;;;;19.44;57.15;100869.91;5113669;28;20027;-67
2023/05/05 06:57:28;;;;;;;10.02;4.82;;;;;;;19.45;56.52;100863.44;5113007;28;20031;-67
2023/05/05 06:59:54;;;;;;;6.45;4.50;;;;;;;19.62;55.63;100871.34;5113846;28;20054;-67
2023/05/05 07:02:19;;;;;;;4.82;3.88;;;;;;;19.75;54.38;100870.72;5113810;28;20081;-67
2023/05/05 07:04:45;;;;;;;7.68;4.38;;;;;;;19.84;54.32;100870.53;5111896;28;20040;-67
2023/05/05 07:07:10;;;;;;;7.55;5.55;;;;;;;19.96;54.54;100877.22;5111123;28;20084;-67
2023/05/05 07:09:36;;;;;;;8.20;4.82;;;;;;;20.10;52.79;100868.28;5112407;28;20027;-67
2023/05/05 07:12:02;;;;;;;7.10;4.07;;;;;;;20.06;53.47;100857.91;5113385;28;20076;-66
2023/05/05 07:14:27;;;;;;;4.65;3.97;;;;;;;20.28;52.92;100887.03;5111454;27;20032;-68
2023/05/05 07:16:53;;;;;;;6.95;4.20;;;;;;;20.33;51.80;100878.31;5113315;28;20038;-67
2023/05/05 07:19:18;;;;;;;7.00;4.38;;;;;;;20.30;52.35;100860.47;5112185;28;20024;-67
2023/05/05 07:21:44;;;;;;;5.65;4.15;;;;;;;20.44;52.61;100876.00;5113114;28;20426;-67
2023/05/05 07:24:09;;;;;;;7.53;4.85;;;;;;;20.49;52.50;100859.94;5112769;28;20532;-67
2023/05/05 07:26:35;;;;;;;5.32;4.10;;;;;;;20.48;52.93;100860.13;5113193;28;20031;-62
2023/05/05 07:29:01;;;;;;;5.85;4.43;;;;;;;20.60;52.95;100873.09;5111337;27;20736;-61
2023/05/05 07:31:27;;;;;;;8.90;4.75;;;;;;;20.60;53.68;100864.94;5110790;28;20400;-62
2023/05/05 07:33:52;;;;;;;6.63;4.75;;;;;;;20.61;54.01;100871.25;5112389;28;20096;-61
2023/05/05 07:36:18;;;;;;;4.95;4.18;;;;;;;20.61;53.66;100860.34;5108800;28;20036;-60
2023/05/05 07:38:43;;;;;;;8.63;4.25;;;;;;;20.64;53.20;100852.66;5100352;28;20036;-63
2023/05/05 07:41:10;;;;;;;5.93;4.50;;;;;;;20.77;53.51;100861.03;5111533;28;20077;-62
2023/05/05 07:43:36;;;;;;;10.27;4.63;;;;;;;20.85;54.14;100865.53;5112099;28;20499;-61
2023/05/05 07:46:02;;;;;;;5.13;4.07;;;;;;;20.85;53.96;100862.78;5112215;28;20043;-61
2023/05/05 07:48:29;;;;;;;6.82;4.47;;;;;;;21.00;54.37;100874.59;5110184;28;20031;-61
2023/05/05 07:50:54;;;;;;;6.13;4.78;;;;;;;21.08;53.62;100866.28;5112723;28;20510;-62
2023/05/05 07:53:20;;;;;;;6.68;4.40;;;;;;;21.14;54.14;100869.13;5112729;28;20032;-61
2023/05/05 07:55:45;;;;;;;8.32;4.93;;;;;;;21.25;53.17;100859.63;5112772;28;20079;-62
2023/05/05 07:58:11;;;;;;;8.48;5.35;;;;;;;21.24;53.23;100860.63;5112591;28;20035;-62
2023/05/05 08:00:37;;;;;;;8.25;5.13;;;;;;;21.29;52.52;100855.47;5112407;28;20066;-62
2023/05/05 08:03:02;;;;;;;6.60;3.90;;;;;;;21.44;52.48;100864.50;5111399;28;20034;-62
2023/05/05 08:05:28;;;;;;;6.38;5.18;;;;;;;21.39;52.86;100861.47;5112432;28;20031;-61
2023/05/05 08:07:53;;;;;;;6.78;4.95;;;;;;;21.47;52.15;100858.66;5111297;28;20084;-61
2023/05/05 08:10:21;;;;;;;6.45;5.40;;;;;;;21.49;52.58;100862.03;5111061;28;20066;-61
2023/05/05 08:12:46;;;;;;;8.30;4.95;;;;;;;21.43;52.67;100844.53;5112258;28;20066;-61
2023/05/05 08:15:12;;;;;;;6.80;4.85;;;;;;;21.56;52.82;100855.59;5111101;28;20028;-62
2023/05/05 08:17:48;;;;;;;8.43;5.40;;;;;;;21.68;52.96;100858.69;5112003;28;20032;-61
2023/05/05 08:20:15;;;;;;;7.32;5.40;;;;;;;21.63;52.78;100831.09;5111724;28;20646;-62
2023/05/05 08:22:41;;;;;;;9.98;5.30;;;;;;;21.68;52.47;100842.28;5110631;28;20024;-62
2023/05/05 08:25:09;;;;;;;7.47;5.47;;;;;;;21.84;52.21;100853.88;5111984;28;20476;-62
2023/05/05 08:27:36;;;;;;;7.90;5.20;;;;;;;21.91;53.22;100857.50;5111595;28;20055;-61
2023/05/05 08:30:02;;;;;;;7.95;5.05;;;;;;;21.95;52.71;100860.66;5111419;28;20520;-61
2023/05/05 08:32:28;;;;;;;6.75;5.57;;;;;;;21.87;52.78;100830.78;5110638;28;20023;-62
2023/05/05 08:34:53;;;;;;;8.85;5.55;;;;;;;21.97;52.68;100845.81;5111285;28;20089;-62
2023/05/05 08:37:19;;;;;;;6.35;4.97;;;;;;;22.07;52.28;100859.13;5111148;28;20085;-62
2023/05/05 08:39:44;;;;;;;8.43;6.18;;;;;;;22.13;52.43;100855.59;5110796;28;20034;-61
2023/05/05 08:42:10;;;;;;;8.98;6.07;;;;;;;22.12;53.12;100856.66;5111396;28;20035;-61
2023/05/05 08:44:35;;;;;;;7.03;5.68;;;;;;;22.15;51.70;100858.97;5111362;28;20447;-62
2023/05/05 08:47:01;;;;;;;6.15;5.55;;;;;;;21.99;53.02;100845.59;5110637;28;20059;-62
2023/05/05 08:49:35;;;;;;;9.48;5.57;;;;;;;22.04;53.50;100852.16;5107364;28;20064;-61
2023/05/05 08:52:03;;;;;;;6.28;5.68;;;;;;;21.97;53.19;100845.81;5109584;28;20732;-62
2023/05/05 08:54:33;;;;;;;8.48;5.80;;;;;;;22.04;53.52;100849.44;5109316;28;20028;-62
2023/05/05 08:57:00;;;;;;;10.63;7.03;;;;;;;22.11;53.08;100863.16;5110157;28;20035;-62
2023/05/05 08:59:29;;;;;;;6.95;6.07;;;;;;;22.13;53.08;100864.66;5110626;28;20084;-61
2023/05/05 09:01:57;;;;;;;6.80;5.85;;;;;;;22.11;51.82;100847.59;5110070;28;20023;-62
2023/05/05 09:04:22;;;;;;;6.22;5.63;;;;;;;22.14;52.12;100851.81;5110450;28;20018;-61
2023/05/05 09:06:48;;;;;;;8.77;5.72;;;;;;;22.16;51.84;100858.78;5111190;28;20499;-62
2023/05/05 09:09:14;;;;;;;10.52;7.25;;;;;;;22.23;52.36;100856.13;5111229;28;20102;-62
2023/05/05 09:11:40;;;;;;;9.93;6.75;;;;;;;22.02;53.44;100815.13;5109397;28;20020;-61
2023/05/05 09:14:06;;;;;;;10.65;7.38;;;;;;;22.24;53.98;100846.88;5109590;28;20568;-61
2023/05/05 09:16:32;;;;;;;12.23;8.25;;;;;;;22.34;53.85;100852.84;5111266;28;20015;-62
2023/05/05 09:19:03;;;;;;;14.90;8.90;;;;;;;22.36;53.62;100853.50;5110937;28;20062;-62
2023/05/05 09:21:29;;;;;;;10.77;8.10;;;;;;;22.41;53.70;100844.72;5110313;28;20551;-61
2023/05/05 09:24:08;;;;;;;9.93;6.80;;;;;;;22.46;53.54;100844.94;5111249;28;20084;-61
2023/05/05 09:26:38;;;;;;;8.38;5.90;;;;;;;22.55;53.61;100846.53;5110847;28;20065;-61
2023/05/05 09:29:04;;;;;;;8.82;6.53;;;;;;;22.54;52.89;100847.56;5110379;28;20493;-61
2023/05/05 09:31:31;;;;;;;9.38;6.85;;;;;;;22.59;52.56;100829.53;5110921;28;20092;-62
2023/05/05 09:33:59;;;;;;;9.65;6.57;;;;;;;22.58;52.87;100833.31;5110938;28;20034;-63
2023/05/05 09:36:42;;;;;;;9.68;7.45;;;;;;;22.68;52.30;100844.75;5109411;28;20059;-62
2023/05/05 09:39:07;;;;;;;9.30;6.97;;;;;;;22.67;52.63;100840.31;5109212;28;20027;-62
2023/05/05 09:41:37;;;;;;;6.97;5.57;;;;;;;22.76;52.26;100838.28;5110607;28;20502;-62
2023/05/05 09:44:03;;;;;;;9.75;7.25;;;;;;;22.67;52.46;100821.19;5110486;28;20027;-61
2023/05/05 09:46:28;;;;;;;11.48;7.05;;;;;;;22.70;52.84;100818.00;5100443;28;20055;-62
2023/05/05 09:48:54;;;;;;;9.23;6.78;;;;;;;22.87;52.77;100835.81;5110335;28;20019;-62
2023/05/05 09:51:28;;;;;;;8.45;6.03;;;;;;;22.81;52.20;100828.41;5110257;28;20058;-60
2023/05/05 09:53:53;;;;;;;7.82;5.68;;;;;;;22.79;51.96;100829.66;5109434;28;20036;-61
2023/05/05 09:56:19;;;;;;;6.32;4.93;;;;;;;22.73;50.70;100819.53;5110032;28;20514;-61
2023/05/05 09:58:45;;;;;;;7.13;5.20;;;;;;;22.79;51.29;100825.03;5108247;28;20024;-61
2023/05/05 10:01:21;;;;;;;5.25;4.75;;;;;;;22.79;51.63;100825.03;5109797;28;20038;-61
2023/05/05 10:03:53;;;;;;;7.25;4.97;;;;;;;22.78;51.16;100801.47;5109755;28;20054;-61
2023/05/05 10:06:18;;;;;;;5.15;4.65;;;;;;;22.80;50.91;100810.31;5109338;28;20134;-61
2023/05/05 10:08:44;;;;;;;6.22;4.78;;;;;;;22.56;51.36;100756.09;5109689;28;20137;-61
2023/05/05 10:11:09;;;;;;;8.98;4.72;;;;;;;22.85;51.52;100796.00;5107520;28;20143;-61
2023/05/05 10:13:40;;;;;;;8.20;6.10;;;;;;;22.93;50.69;100806.81;5109211;28;20027;-61
2023/05/05 10:16:08;;;;;;;6.60;5.30;;;;;;;22.94;50.70;100813.94;5108499;28;20080;-61
2023/05/05 10:18:34;;;;;;;6.63;5.25;;;;;;;22.90;50.82;100807.19;5109490;28;20116;-61
2023/05/05 10:21:02;;;;;;;6.22;5.63;;;;;;;22.77;50.75;100793.44;5109559;28;20023;-61
2023/05/05 10:23:38;;;;;;;7.18;5.80;;;;;;;22.84;50.05;100792.44;5109893;28;20376;-62
2023/05/05 10:26:09;;;;;;;7.85;5.15;;;;;;;22.84;50.85;100795.19;5109218;28;20047;-61
2023/05/05 10:28:47;;;;;;;6.93;5.07;;;;;;;22.90;51.09;100793.53;5109667;28;20502;-61
2023/05/05 10:31:19;;;;;;;10.40;6.40;;;;;;;22.94;51.78;100792.91;5109371;28;20039;-62
2023/05/05 10:34:01;;;;;;;5.95;5.10;;;;;;;22.97;51.17;100789.78;5108917;28;20091;-61
2023/05/05 10:36:28;;;;;;;9.52;5.93;;;;;;;22.96;50.61;100785.34;5109564;28;20023;-62
2023/05/05 10:38:58;;;;;;;7.53;4.88;;;;;;;23.01;50.13;100782.84;5109299;28;20413;-61
2023/05/05 10:41:25;;;;;;;6.22;5.38;;;;;;;23.03;49.67;100778.03;5108742;28;20065;-62
2023/05/05 10:43:54;;;;;;;6.85;5.15;;;;;;;23.09;49.95;100777.22;5108516;28;20072;-61
2023/05/05 10:46:19;;;;;;;7.32;4.60;;;;;;;23.06;49.63;100760.34;5109678;28;20048;-61
2023/05/05 10:49:12;;;;;;;6.38;5.10;;;;;;;22.98;48.25;100749.56;5108505;28;20093;-61
2023/05/05 10:52:04;;;;;;;6.47;4.97;;;;;;;23.38;47.29;100760.47;5098512;28;20149;-61
2023/05/05 10:54:44;;;;;;;6.35;4.38;;;;;;;23.29;47.63;100750.78;5109892;28;20034;-61
2023/05/05 10:57:10;;;;;;;5.10;3.90;;;;;;;23.38;47.59;100748.69;5109822;28;20341;-61
2023/05/05 10:59:36;;;;;;;4.55;4.15;;;;;;;23.40;46.99;100750.16;5108671;28;20050;-61
2023/05/05 11:02:28;;;;;;;4.80;4.13;;;;;;;23.41;47.05;100743.63;5109589;28;20106;-61
2023/05/05 11:05:08;;;;;;;5.32;4.07;;;;;;;23.45;46.88;100744.94;5093412;28;20019;-61
2023/05/05 11:07:34;;;;;;;7.20;4.10;;;;;;;23.47;47.11;100751.03;5108432;28;20059;-62
2023/05/05 11:10:07;;;;;;;4.97;4.00;;;;;;;23.45;47.10;100747.66;5109272;28;20020;-62
2023/05/05 11:12:52;;;;;;;7.65;4.60;;;;;;;23.43;46.40;100730.59;5108794;28;20032;-61
2023/05/05 11:15:21;;;;;;;3.38;3.00;;;;;;;23.45;46.63;100733.97;5107918;28;20032;-67
2023/05/05 11:17:47;;;;;;;6.10;4.43;;;;;;;23.36;47.18;100715.19;5109992;28;20069;-66
2023/05/05 11:20:12;;;;;;;6.25;4.25;;;;;;;23.45;46.83;100731.25;5113150;28;20031;-67
2023/05/05 11:23:03;;;;;;;6.38;5.28;;;;;;;23.51;46.14;100724.91;5111938;28;20019;-67
2023/05/05 11:25:39;;;;;;;4.93;4.43;;;;;;;23.47;46.60;100720.06;5113041;28;20051;-68